createdAt,value
2023-01-31T00:00:07.847Z,95749.03
2023-01-31T00:02:35.530Z,95747.28
2023-01-31T00:05:03.434Z,95738.59
2023-01-31T00:07:31.044Z,95752.50
2023-01-31T00:09:58.656Z,95748.09
2023-01-31T00:12:26.314Z,95753.31
2023-01-31T00:14:55.349Z,95751.50
2023-01-31T00:17:23.071Z,95744.66
2023-01-31T00:19:50.725Z,95736.00
2023-01-31T00:22:18.384Z,95736.84
2023-01-31T00:24:45.993Z,95735.06
2023-01-31T00:27:13.701Z,95741.06
2023-01-31T00:29:41.370Z,95748.09
2023-01-31T00:32:10.564Z,95744.66
2023-01-31T00:34:38.265Z,95741.22
2023-01-31T00:37:05.884Z,95737.66
2023-01-31T00:39:33.547Z,95740.28
2023-01-31T00:42:01.172Z,95737.66
2023-01-31T00:44:28.815Z,95747.28
2023-01-31T00:46:56.452Z,95736.84
2023-01-31T00:49:25.491Z,95738.59
2023-01-31T00:51:53.123Z,95733.25
2023-01-31T00:54:20.789Z,95730.63
2023-01-31T00:56:48.425Z,95739.44
2023-01-31T00:59:16.439Z,95741.22
2023-01-31T01:01:44.275Z,95739.44
2023-01-31T01:04:12.017Z,95738.47
2023-01-31T01:06:41.854Z,95727.22
2023-01-31T01:09:09.545Z,95722.00
2023-01-31T01:11:37.289Z,95725.56
2023-01-31T01:14:05.771Z,95729.13
2023-01-31T01:16:36.628Z,95737.78
2023-01-31T01:19:05.778Z,95739.56
2023-01-31T01:21:40.656Z,95740.38
2023-01-31T01:24:14.438Z,95736.84
2023-01-31T01:26:42.492Z,95747.38
2023-01-31T01:29:10.575Z,95743.97
2023-01-31T01:31:39.222Z,95753.44
2023-01-31T01:34:08.840Z,95750.00
2023-01-31T01:36:38.090Z,95743.97
2023-01-31T01:39:09.610Z,95744.78
2023-01-31T01:41:40.241Z,95747.53
2023-01-31T01:44:41.240Z,95758.78
2023-01-31T01:47:16.100Z,95759.72
2023-01-31T01:49:44.018Z,95759.88
2023-01-31T01:52:15.350Z,95769.38
2023-01-31T01:54:47.987Z,95778.81
2023-01-31T01:57:21.078Z,95771.97
2023-01-31T01:59:54.931Z,95767.56
2023-01-31T02:02:22.868Z,95771.97
2023-01-31T02:04:52.897Z,95766.75
2023-01-31T02:07:20.953Z,95778.13
2023-01-31T02:09:55.942Z,95781.56
2023-01-31T02:12:26.247Z,95782.41
2023-01-31T02:14:54.256Z,95784.19
2023-01-31T02:17:22.051Z,95785.00
2023-01-31T02:20:04.742Z,95790.25
2023-01-31T02:22:35.658Z,95781.56
2023-01-31T02:25:42.360Z,95781.56
2023-01-31T02:28:45.599Z,95794.63
2023-01-31T02:31:43.538Z,95793.78
2023-01-31T02:34:18.864Z,95794.63
2023-01-31T02:37:00.140Z,95797.22
2023-01-31T02:39:37.013Z,95797.22
2023-01-31T02:42:15.192Z,95803.38
2023-01-31T02:45:02.465Z,95812.88
2023-01-31T02:47:42.196Z,95808.59
2023-01-31T02:50:15.465Z,95805.16
2023-01-31T02:52:49.575Z,95800.78
2023-01-31T02:55:39.250Z,95798.16
2023-01-31T02:58:10.493Z,95812.19
2023-01-31T03:00:40.715Z,95806.13
2023-01-31T03:03:10.122Z,95815.59
2023-01-31T03:05:39.127Z,95821.66
2023-01-31T03:08:08.573Z,95813.81
2023-01-31T03:10:54.200Z,95809.56
2023-01-31T03:13:34.572Z,95813.00
2023-01-31T03:16:31.126Z,95820.81
2023-01-31T03:19:13.531Z,95823.44
2023-01-31T03:21:47.716Z,95823.44
2023-01-31T03:24:18.217Z,95820.00
2023-01-31T03:26:47.501Z,95830.44
2023-01-31T03:29:17.708Z,95826.03
2023-01-31T03:31:49.900Z,95832.09
2023-01-31T03:34:18.506Z,95826.88
2023-01-31T03:36:55.158Z,95826.03
2023-01-31T03:39:33.905Z,95834.69
2023-01-31T03:42:07.566Z,95836.47
2023-01-31T03:44:45.102Z,95834.84
2023-01-31T03:47:18.028Z,95830.44
2023-01-31T03:49:47.371Z,95840.06
2023-01-31T03:52:23.314Z,95849.50
2023-01-31T03:54:55.770Z,95855.69
2023-01-31T03:57:26.419Z,95850.34
2023-01-31T03:59:59.259Z,95845.25
2023-01-31T04:02:33.292Z,95849.50
2023-01-31T04:05:07.164Z,95854.72
2023-01-31T04:07:37.801Z,95851.44
2023-01-31T04:10:08.305Z,95857.47
2023-01-31T04:12:37.679Z,95855.69
2023-01-31T04:15:06.521Z,95860.09
2023-01-31T04:17:34.305Z,95872.19
2023-01-31T04:20:02.016Z,95868.75
2023-01-31T04:22:29.696Z,95871.34
2023-01-31T04:24:58.688Z,95874.91
2023-01-31T04:27:26.334Z,95874.78
2023-01-31T04:29:53.972Z,95883.56
2023-01-31T04:32:21.639Z,95872.19
2023-01-31T04:34:49.344Z,95877.50
2023-01-31T04:37:17.100Z,95877.50
2023-01-31T04:39:44.725Z,95864.47
2023-01-31T04:42:13.718Z,95887.94
2023-01-31T04:44:41.354Z,95884.41
2023-01-31T04:47:09.083Z,95883.56
2023-01-31T04:49:36.790Z,95890.44
2023-01-31T04:52:04.520Z,95895.66
2023-01-31T04:54:33.004Z,95890.44
2023-01-31T04:57:01.808Z,95894.84
2023-01-31T04:59:30.787Z,95900.06
2023-01-31T05:01:58.429Z,95896.47
2023-01-31T05:04:26.421Z,95902.66
2023-01-31T05:06:54.079Z,95910.34
2023-01-31T05:09:22.818Z,95905.13
2023-01-31T05:11:50.847Z,95915.47
2023-01-31T05:14:21.036Z,95906.66
2023-01-31T05:16:50.119Z,95908.34
2023-01-31T05:19:18.133Z,95904.75
2023-01-31T05:21:59.287Z,95917.78
2023-01-31T05:24:29.185Z,95915.19
2023-01-31T05:26:58.791Z,95930.00
2023-01-31T05:29:27.453Z,95926.47
2023-01-31T05:31:58.676Z,95931.69
2023-01-31T05:34:28.658Z,95930.84
2023-01-31T05:36:56.623Z,95935.22
2023-01-31T05:39:24.280Z,95931.69
2023-01-31T05:41:52.811Z,95937.72
2023-01-31T05:44:20.770Z,95927.28
2023-01-31T05:46:48.593Z,95928.13
2023-01-31T05:49:17.879Z,95931.53
2023-01-31T05:51:45.576Z,95929.91
2023-01-31T05:54:13.693Z,95933.34
2023-01-31T05:56:41.312Z,95935.97
2023-01-31T05:59:09.080Z,95941.19
2023-01-31T06:01:36.790Z,95945.41
2023-01-31T06:04:04.492Z,95946.25
2023-01-31T06:06:33.514Z,95946.25
2023-01-31T06:09:01.234Z,95934.16
2023-01-31T06:11:28.948Z,95934.16
2023-01-31T06:13:58.365Z,95931.53
2023-01-31T06:16:26.531Z,95926.22
2023-01-31T06:18:55.653Z,95932.38
2023-01-31T06:21:23.631Z,95935.69
2023-01-31T06:23:52.642Z,95934.84
2023-01-31T06:26:20.305Z,95929.63
2023-01-31T06:28:47.983Z,95922.63
2023-01-31T06:31:15.703Z,95925.25
2023-01-31T06:33:47.261Z,95925.25
2023-01-31T06:36:18.669Z,95927.03
2023-01-31T06:38:50.237Z,95928.81
2023-01-31T06:41:19.674Z,95944.34
2023-01-31T06:43:47.319Z,95945.19
2023-01-31T06:46:15.529Z,95948.72
2023-01-31T06:48:43.790Z,95946.94
2023-01-31T06:51:11.539Z,95947.91
2023-01-31T06:53:39.182Z,95947.91
2023-01-31T06:56:07.869Z,95948.72
2023-01-31T06:58:36.880Z,95949.69
2023-01-31T07:01:07.996Z,95957.53
2023-01-31T07:03:36.079Z,95958.34
2023-01-31T07:06:03.754Z,95968.78
2023-01-31T07:08:34.977Z,95967.00
2023-01-31T07:11:04.303Z,95978.41
2023-01-31T07:13:32.597Z,95969.75
2023-01-31T07:16:01.822Z,95972.34
2023-01-31T07:18:30.196Z,95966.44
2023-01-31T07:20:57.900Z,95968.91
2023-01-31T07:23:25.578Z,95972.34
2023-01-31T07:25:53.214Z,95969.88
2023-01-31T07:28:20.936Z,95972.47
2023-01-31T07:30:48.676Z,95969.03
2023-01-31T07:33:17.690Z,95971.66
2023-01-31T07:35:45.360Z,95969.88
2023-01-31T07:38:12.971Z,95965.59
2023-01-31T07:40:41.063Z,95957.75
2023-01-31T07:43:08.839Z,95962.16
2023-01-31T07:45:36.843Z,95965.59
2023-01-31T07:48:06.171Z,95961.22
2023-01-31T07:50:35.239Z,95967.38
2023-01-31T07:53:02.856Z,95961.31
2023-01-31T07:55:30.779Z,95967.38
2023-01-31T07:57:58.470Z,95974.25
2023-01-31T08:00:44.115Z,95966.44
2023-01-31T08:03:34.002Z,95977.81
2023-01-31T08:06:05.243Z,95979.56
2023-01-31T08:08:32.966Z,95976.03
2023-01-31T08:11:00.622Z,95973.41
2023-01-31T08:13:28.359Z,95964.75
2023-01-31T08:15:56.003Z,95962.16
2023-01-31T08:18:23.694Z,95957.75
2023-01-31T08:20:51.332Z,95958.72
2023-01-31T08:23:20.386Z,95966.53
2023-01-31T08:25:48.017Z,95967.38
2023-01-31T08:28:16.218Z,95969.16
2023-01-31T08:30:50.315Z,95970.94
2023-01-31T08:33:23.982Z,95969.97
2023-01-31T08:35:51.797Z,95969.97
2023-01-31T08:38:20.876Z,95970.94
2023-01-31T08:40:48.702Z,95973.41
2023-01-31T08:43:16.318Z,95969.16
2023-01-31T08:45:43.985Z,95975.19
2023-01-31T08:48:12.605Z,95966.53
2023-01-31T08:50:40.644Z,95969.16
2023-01-31T08:53:08.385Z,95985.63
2023-01-31T08:55:38.028Z,95976.97
2023-01-31T08:58:05.928Z,95969.16
2023-01-31T09:00:34.028Z,95980.56
2023-01-31T09:03:02.062Z,95974.34
2023-01-31T09:05:31.127Z,95971.75
2023-01-31T09:07:58.842Z,95976.03
2023-01-31T09:10:26.491Z,95977.81
2023-01-31T09:12:55.464Z,95966.44
2023-01-31T09:15:23.546Z,95968.19
2023-01-31T09:17:51.558Z,95969.97
2023-01-31T09:20:19.465Z,95964.75
2023-01-31T09:22:47.085Z,95965.59
2023-01-31T09:25:14.843Z,95971.75
2023-01-31T09:27:42.478Z,95963.13
2023-01-31T09:30:12.865Z,95971.75
2023-01-31T09:32:41.418Z,95966.44
2023-01-31T09:35:09.708Z,95976.16
2023-01-31T09:37:37.738Z,95969.97
2023-01-31T09:40:06.412Z,95976.16
2023-01-31T09:42:38.623Z,95986.47
2023-01-31T09:45:13.892Z,95988.25
2023-01-31T09:47:47.960Z,95995.22
2023-01-31T09:50:21.719Z,95991.69
2023-01-31T09:52:50.351Z,95986.47
2023-01-31T09:55:20.379Z,95989.91
2023-01-31T09:57:55.332Z,95996.91
2023-01-31T10:00:29.554Z,95985.63
2023-01-31T10:03:33.248Z,95994.28
2023-01-31T10:06:10.377Z,95995.13
2023-01-31T10:08:46.604Z,95992.63
2023-01-31T10:11:23.789Z,95982.91
2023-01-31T10:13:54.620Z,95985.63
2023-01-31T10:16:28.047Z,95993.47
2023-01-31T10:19:02.317Z,95979.47
2023-01-31T10:21:33.565Z,95964.66
2023-01-31T10:24:06.007Z,95958.59
2023-01-31T10:26:37.802Z,95948.16
2023-01-31T10:29:13.726Z,95944.59
2023-01-31T10:31:44.754Z,95946.41
2023-01-31T10:34:18.940Z,95955.16
2023-01-31T10:36:52.827Z,95947.34
2023-01-31T10:39:24.743Z,95941.28
2023-01-31T10:42:12.571Z,95936.91
2023-01-31T10:44:53.314Z,95937.72
2023-01-31T10:47:22.919Z,95935.13
2023-01-31T10:49:52.458Z,95936.06
2023-01-31T10:52:39.411Z,95932.50
2023-01-31T10:55:28.192Z,95942.13
2023-01-31T10:57:56.876Z,95936.91
2023-01-31T11:00:28.786Z,95928.22
2023-01-31T11:02:56.716Z,95923.00
2023-01-31T11:05:28.443Z,95919.47
2023-01-31T11:07:57.235Z,95921.25
2023-01-31T11:10:27.322Z,95916.03
2023-01-31T11:12:57.381Z,95911.63
2023-01-31T11:15:28.618Z,95910.66
2023-01-31T11:18:01.029Z,95892.53
2023-01-31T11:20:31.811Z,95890.78
2023-01-31T11:23:02.441Z,95881.97
2023-01-31T11:25:32.700Z,95876.75
2023-01-31T11:28:02.704Z,95877.72
2023-01-31T11:30:34.973Z,95870.72
2023-01-31T11:33:03.278Z,95867.28
2023-01-31T11:35:34.316Z,95863.84
2023-01-31T11:38:04.356Z,95853.41
2023-01-31T11:40:33.815Z,95849.97
2023-01-31T11:43:03.180Z,95836.09
2023-01-31T11:45:32.656Z,95840.34
2023-01-31T11:48:08.601Z,95825.53
2023-01-31T11:50:40.302Z,95831.69
2023-01-31T11:53:18.041Z,95829.94
2023-01-31T11:55:47.406Z,95831.59
2023-01-31T11:58:20.542Z,95814.28
2023-01-31T12:00:57.606Z,95816.88
2023-01-31T12:03:27.082Z,95811.66
2023-01-31T12:06:02.871Z,95804.66
2023-01-31T12:08:33.174Z,95789.00
2023-01-31T12:11:06.178Z,95797.69
2023-01-31T12:13:47.571Z,95781.03
2023-01-31T12:16:18.255Z,95788.72
2023-01-31T12:18:56.473Z,95775.81
2023-01-31T12:21:40.136Z,95777.59
2023-01-31T12:24:19.077Z,95781.88
2023-01-31T12:26:50.458Z,95780.91
2023-01-31T12:29:44.562Z,95784.50
2023-01-31T12:32:28.383Z,95792.31
2023-01-31T12:35:24.434Z,95796.56
2023-01-31T12:38:01.270Z,95795.75
2023-01-31T12:40:40.774Z,95775.69
2023-01-31T12:43:26.345Z,95773.91
2023-01-31T12:46:09.595Z,95765.25
2023-01-31T12:48:48.872Z,95759.09
2023-01-31T12:51:29.658Z,95759.09
2023-01-31T12:54:10.285Z,95760.88
2023-01-31T12:56:47.909Z,95758.25
2023-01-31T12:59:40.224Z,95771.31
2023-01-31T13:02:23.654Z,95775.56
2023-01-31T13:04:56.976Z,95777.34
2023-01-31T13:07:31.938Z,95781.59
2023-01-31T13:10:06.461Z,95766.78
2023-01-31T13:12:36.203Z,95755.41
2023-01-31T13:15:08.738Z,95747.56
2023-01-31T13:17:40.607Z,95741.38
2023-01-31T13:20:25.031Z,95743.19
2023-01-31T13:22:56.277Z,95738.75
2023-01-31T13:25:37.150Z,95743.19
2023-01-31T13:28:08.538Z,95744.97
2023-01-31T13:30:40.484Z,95738.75
2023-01-31T13:33:19.566Z,95727.53
2023-01-31T13:35:55.171Z,95717.09
2023-01-31T13:38:24.817Z,95707.47
2023-01-31T13:40:57.487Z,95697.16
2023-01-31T13:43:25.144Z,95697.00
2023-01-31T13:45:57.634Z,95686.72
2023-01-31T13:48:30.814Z,95685.78
2023-01-31T13:51:02.727Z,95676.16
2023-01-31T13:53:34.461Z,95680.56
2023-01-31T13:56:10.443Z,95691.69
2023-01-31T13:58:38.756Z,95688.38
2023-01-31T14:01:10.234Z,95682.19
2023-01-31T14:04:11.310Z,95690.03
2023-01-31T14:07:23.925Z,95697.00
2023-01-31T14:10:34.042Z,95697.84
2023-01-31T14:13:37.872Z,95697.84
2023-01-31T14:16:38.453Z,95703.06
2023-01-31T14:19:27.245Z,95703.06
2023-01-31T14:21:58.048Z,95697.84
2023-01-31T14:25:05.160Z,95699.63
2023-01-31T14:27:40.725Z,95701.28
2023-01-31T14:30:27.774Z,95692.63
2023-01-31T14:33:15.468Z,95686.56
2023-01-31T14:36:06.689Z,95681.25
2023-01-31T14:39:03.697Z,95678.63
2023-01-31T14:41:46.548Z,95685.63
2023-01-31T14:44:30.127Z,95690.72
2023-01-31T14:47:16.937Z,95691.69
2023-01-31T14:50:14.790Z,95674.22
2023-01-31T14:52:58.005Z,95681.25
2023-01-31T14:55:47.851Z,95673.44
2023-01-31T14:58:19.387Z,95657.78
2023-01-31T15:00:52.877Z,95660.38
2023-01-31T15:03:24.653Z,95661.31
2023-01-31T15:05:56.900Z,95658.72
2023-01-31T15:08:52.349Z,95659.69
2023-01-31T15:11:43.049Z,95672.59
2023-01-31T15:14:45.084Z,95664.75
2023-01-31T15:17:33.590Z,95661.31
2023-01-31T15:20:15.472Z,95681.25
2023-01-31T15:22:46.682Z,95673.44
2023-01-31T15:25:24.648Z,95677.81
2023-01-31T15:27:53.941Z,95683.03
2023-01-31T15:30:23.557Z,95668.19
2023-01-31T15:32:54.742Z,95670.81
2023-01-31T15:35:26.512Z,95681.25
2023-01-31T15:38:01.667Z,95681.25
2023-01-31T15:40:30.181Z,95681.25
2023-01-31T15:43:19.171Z,95674.38
2023-01-31T15:45:51.455Z,95662.97
2023-01-31T15:48:20.931Z,95650.88
2023-01-31T15:50:53.447Z,95641.28
2023-01-31T15:53:25.066Z,95648.13
2023-01-31T15:55:56.837Z,95646.50
2023-01-31T15:58:26.870Z,95647.34
2023-01-31T16:00:56.537Z,95636.06
2023-01-31T16:03:26.459Z,95636.06
2023-01-31T16:05:56.360Z,95644.72
2023-01-31T16:08:29.741Z,95645.53
2023-01-31T16:10:59.034Z,95645.53
2023-01-31T16:13:27.734Z,95655.16
2023-01-31T16:15:55.662Z,95659.41
2023-01-31T16:18:23.753Z,95655.00
2023-01-31T16:20:53.995Z,95648.97
2023-01-31T16:23:32.225Z,95669.00
2023-01-31T16:26:06.032Z,95669.00
2023-01-31T16:28:38.983Z,95680.28
2023-01-31T16:31:09.883Z,95668.19
2023-01-31T16:33:38.322Z,95673.44
2023-01-31T16:36:14.421Z,95675.19
2023-01-31T16:38:57.309Z,95666.41
2023-01-31T16:41:45.258Z,95650.75
2023-01-31T16:44:16.715Z,95642.91
2023-01-31T16:46:46.395Z,95627.16
2023-01-31T16:49:23.544Z,95628.22
2023-01-31T16:51:52.948Z,95648.97
2023-01-31T16:54:24.390Z,95648.13
2023-01-31T16:57:23.488Z,95660.38
2023-01-31T16:59:52.575Z,95668.19
2023-01-31T17:02:24.602Z,95670.81
2023-01-31T17:04:55.121Z,95680.28
2023-01-31T17:07:25.639Z,95688.09
2023-01-31T17:10:00.086Z,95677.66
2023-01-31T17:12:29.726Z,95680.28
2023-01-31T17:15:02.432Z,95675.06
2023-01-31T17:17:35.091Z,95678.50
2023-01-31T17:20:02.750Z,95681.09
2023-01-31T17:22:30.689Z,95685.50
2023-01-31T17:24:59.736Z,95686.31
2023-01-31T17:27:27.504Z,95688.94
2023-01-31T17:29:55.121Z,95694.16
2023-01-31T17:32:22.942Z,95690.72
2023-01-31T17:34:50.559Z,95697.59
2023-01-31T17:37:30.062Z,95702.81
2023-01-31T17:40:00.780Z,95701.00
2023-01-31T17:42:28.429Z,95707.19
2023-01-31T17:44:56.038Z,95706.22
2023-01-31T17:47:25.224Z,95721.09
2023-01-31T17:49:54.426Z,95705.41
2023-01-31T17:52:22.079Z,95701.00
2023-01-31T17:54:49.732Z,95697.72
2023-01-31T17:57:18.769Z,95699.38
2023-01-31T17:59:46.411Z,95697.59
2023-01-31T18:02:14.076Z,95700.22
2023-01-31T18:04:41.727Z,95700.22
2023-01-31T18:07:09.346Z,95700.06
2023-01-31T18:09:36.985Z,95713.09
2023-01-31T18:12:05.009Z,95715.72
2023-01-31T18:14:34.081Z,95720.94
2023-01-31T18:17:01.713Z,95716.56
2023-01-31T18:19:29.395Z,95719.16
2023-01-31T18:21:57.191Z,95720.00
2023-01-31T18:24:25.071Z,95705.13
2023-01-31T18:26:53.060Z,95714.78
2023-01-31T18:29:21.318Z,95709.56
2023-01-31T18:31:50.914Z,95711.34
2023-01-31T18:34:18.561Z,95706.13
2023-01-31T18:36:46.239Z,95707.88
2023-01-31T18:39:14.135Z,95702.66
2023-01-31T18:41:41.784Z,95707.06
2023-01-31T18:44:09.534Z,95704.44
2023-01-31T18:46:38.120Z,95716.66
2023-01-31T18:49:07.617Z,95713.25
2023-01-31T18:51:35.442Z,95722.72
2023-01-31T18:54:03.082Z,95722.72
2023-01-31T18:56:31.279Z,95724.50
2023-01-31T18:58:59.514Z,95721.09
2023-01-31T19:01:29.622Z,95727.25
2023-01-31T19:03:58.549Z,95734.00
2023-01-31T19:06:30.126Z,95731.53
2023-01-31T19:08:59.092Z,95734.13
2023-01-31T19:11:28.504Z,95734.94
2023-01-31T19:13:56.596Z,95734.94
2023-01-31T19:16:26.311Z,95737.53
2023-01-31T19:18:54.095Z,95746.19
2023-01-31T19:21:23.816Z,95748.94
2023-01-31T19:23:55.789Z,95744.56
2023-01-31T19:26:24.368Z,95745.38
2023-01-31T19:28:52.753Z,95741.81
2023-01-31T19:31:22.784Z,95747.97
2023-01-31T19:33:51.629Z,95732.31
2023-01-31T19:36:21.179Z,95731.53
2023-01-31T19:38:49.192Z,95720.25
2023-01-31T19:41:20.882Z,95714.06
2023-01-31T19:43:50.323Z,95707.19
2023-01-31T19:46:18.522Z,95708.84
2023-01-31T19:48:46.468Z,95715.88
2023-01-31T19:51:15.651Z,95713.25
2023-01-31T19:53:45.248Z,95710.50
2023-01-31T19:56:13.087Z,95714.88
2023-01-31T19:58:42.493Z,95713.94
2023-01-31T20:01:11.699Z,95712.28
2023-01-31T20:03:39.855Z,95712.16
2023-01-31T20:06:09.306Z,95702.66
2023-01-31T20:08:37.557Z,95709.56
2023-01-31T20:11:07.673Z,95697.31
2023-01-31T20:13:36.155Z,95698.28
2023-01-31T20:16:07.835Z,95707.75
2023-01-31T20:18:35.660Z,95716.56
2023-01-31T20:21:04.069Z,95725.22
2023-01-31T20:23:31.903Z,95725.22
2023-01-31T20:25:59.667Z,95723.41
2023-01-31T20:28:28.119Z,95711.34
2023-01-31T20:30:56.085Z,95708.72
2023-01-31T20:33:25.100Z,95716.56
2023-01-31T20:35:52.724Z,95711.34
2023-01-31T20:38:20.420Z,95717.38
2023-01-31T20:40:51.615Z,95701.72
2023-01-31T20:43:19.812Z,95711.34
2023-01-31T20:45:47.693Z,95710.34
2023-01-31T20:48:15.593Z,95708.72
2023-01-31T20:50:45.391Z,95708.59
2023-01-31T20:53:19.862Z,95708.59
2023-01-31T20:55:54.856Z,95705.13
2023-01-31T20:58:23.232Z,95693.91
2023-01-31T21:00:55.476Z,95695.69
2023-01-31T21:03:24.445Z,95696.50
2023-01-31T21:05:54.115Z,95707.75
2023-01-31T21:08:23.011Z,95699.91
2023-01-31T21:10:51.261Z,95711.19
2023-01-31T21:13:19.228Z,95700.75
2023-01-31T21:15:52.859Z,95716.41
2023-01-31T21:18:26.380Z,95707.75
2023-01-31T21:20:56.566Z,95704.34
2023-01-31T21:23:24.396Z,95706.81
2023-01-31T21:25:52.027Z,95710.34
2023-01-31T21:28:19.738Z,95705.13
2023-01-31T21:30:58.393Z,95720.78
2023-01-31T21:33:26.298Z,95712.16
2023-01-31T21:35:55.266Z,95702.66
2023-01-31T21:38:22.916Z,95704.34
2023-01-31T21:41:10.980Z,95712.97
2023-01-31T21:43:40.316Z,95702.66
2023-01-31T21:46:08.740Z,95702.66
2023-01-31T21:48:36.947Z,95695.69
2023-01-31T21:51:08.162Z,95698.41
2023-01-31T21:53:36.566Z,95691.41
2023-01-31T21:56:05.667Z,95680.03
2023-01-31T21:58:34.055Z,95673.97
2023-01-31T22:01:06.434Z,95680.97
2023-01-31T22:03:35.426Z,95680.97
2023-01-31T22:06:03.441Z,95684.41
2023-01-31T22:08:32.478Z,95681.78
2023-01-31T22:11:01.937Z,95668.88
2023-01-31T22:13:29.990Z,95664.47
2023-01-31T22:16:01.923Z,95660.09
2023-01-31T22:18:30.149Z,95651.44
2023-01-31T22:21:03.022Z,95643.59
2023-01-31T22:23:32.329Z,95640.19
2023-01-31T22:26:04.222Z,95644.56
2023-01-31T22:28:31.975Z,95652.41
2023-01-31T22:31:00.784Z,95641.13
2023-01-31T22:33:28.997Z,95631.69
2023-01-31T22:35:57.148Z,95631.53
2023-01-31T22:38:25.437Z,95635.91
2023-01-31T22:40:58.420Z,95642.09
2023-01-31T22:43:26.180Z,95646.34
2023-01-31T22:45:55.192Z,95634.13
2023-01-31T22:48:24.829Z,95634.28
2023-01-31T22:50:56.633Z,95638.66
2023-01-31T22:53:25.114Z,95644.72
2023-01-31T22:55:54.492Z,95649.94
2023-01-31T22:58:22.539Z,95641.28
2023-01-31T23:00:50.519Z,95642.09
2023-01-31T23:03:18.217Z,95635.91
2023-01-31T23:05:45.920Z,95647.34
2023-01-31T23:08:14.583Z,95646.50
2023-01-31T23:10:42.769Z,95651.72
2023-01-31T23:13:12.288Z,95654.31
2023-01-31T23:15:40.483Z,95652.66
2023-01-31T23:18:08.414Z,95660.50
2023-01-31T23:20:36.408Z,95674.38
2023-01-31T23:23:04.039Z,95658.84
2023-01-31T23:25:31.707Z,95673.53
2023-01-31T23:28:00.645Z,95667.50
2023-01-31T23:30:29.633Z,95674.50
2023-01-31T23:32:57.252Z,95679.72
2023-01-31T23:35:24.864Z,95672.84
2023-01-31T23:37:52.553Z,95676.28
2023-01-31T23:40:21.271Z,95671.91
2023-01-31T23:42:49.076Z,95659.81
2023-01-31T23:45:16.882Z,95661.56
2023-01-31T23:47:45.908Z,95662.41
2023-01-31T23:50:13.520Z,95643.31
2023-01-31T23:52:41.183Z,95647.72
2023-01-31T23:55:09.359Z,95648.53
2023-01-31T23:57:37.172Z,95633.84
